sensor_id;sensor_type;location;lat;lon;timestamp;P1;durP1;ratioP1;P2;durP2;ratioP2
15358;SDS011;7779;49.596;11.070;2023-07-20T00:01:14;2.93;;;2.40;;
15358;SDS011;7779;49.596;11.070;2023-07-20T00:03:40;3.67;;;2.37;;
15358;SDS011;7779;49.596;11.070;2023-07-20T00:06:06;3.13;;;2.23;;
15358;SDS011;7779;49.596;11.070;2023-07-20T00:08:32;2.87;;;1.87;;
15358;SDS011;7779;49.596;11.070;2023-07-20T00:10:58;3.60;;;2.40;;
15358;SDS011;7779;49.596;11.070;2023-07-20T00:13:24;2.23;;;2.03;;
15358;SDS011;7779;49.596;11.070;2023-07-20T00:15:50;3.17;;;1.93;;
15358;SDS011;7779;49.596;11.070;2023-07-20T00:18:17;2.70;;;2.07;;
15358;SDS011;7779;49.596;11.070;2023-07-20T00:20:42;2.60;;;2.30;;
15358;SDS011;7779;49.596;11.070;2023-07-20T00:23:08;2.80;;;2.23;;
15358;SDS011;7779;49.596;11.070;2023-07-20T00:25:34;2.23;;;2.03;;
15358;SDS011;7779;49.596;11.070;2023-07-20T00:28:00;2.73;;;2.27;;
15358;SDS011;7779;49.596;11.070;2023-07-20T00:30:26;2.80;;;2.20;;
15358;SDS011;7779;49.596;11.070;2023-07-20T00:32:52;3.10;;;2.10;;
15358;SDS011;7779;49.596;11.070;2023-07-20T00:35:18;2.90;;;2.30;;
15358;SDS011;7779;49.596;11.070;2023-07-20T00:37:44;2.50;;;2.20;;
15358;SDS011;7779;49.596;11.070;2023-07-20T00:40:09;3.33;;;2.57;;
15358;SDS011;7779;49.596;11.070;2023-07-20T00:42:35;3.23;;;2.10;;
15358;SDS011;7779;49.596;11.070;2023-07-20T00:45:01;4.63;;;2.33;;
15358;SDS011;7779;49.596;11.070;2023-07-20T00:47:28;3.03;;;2.20;;
15358;SDS011;7779;49.596;11.070;2023-07-20T00:49:53;3.20;;;2.43;;
15358;SDS011;7779;49.596;11.070;2023-07-20T00:52:20;3.70;;;2.27;;
15358;SDS011;7779;49.596;11.070;2023-07-20T00:54:50;4.37;;;1.93;;
15358;SDS011;7779;49.596;11.070;2023-07-20T00:57:17;2.57;;;2.30;;
15358;SDS011;7779;49.596;11.070;2023-07-20T00:59:44;3.57;;;2.60;;
15358;SDS011;7779;49.596;11.070;2023-07-20T01:02:10;3.00;;;2.60;;
15358;SDS011;7779;49.596;11.070;2023-07-20T01:04:36;3.17;;;2.40;;
15358;SDS011;7779;49.596;11.070;2023-07-20T01:10:00;2.57;;;2.23;;
15358;SDS011;7779;49.596;11.070;2023-07-20T01:12:42;4.37;;;2.27;;
15358;SDS011;7779;49.596;11.070;2023-07-20T01:15:12;2.30;;;2.10;;
15358;SDS011;7779;49.596;11.070;2023-07-20T01:17:38;2.83;;;2.33;;
15358;SDS011;7779;49.596;11.070;2023-07-20T01:20:06;2.37;;;2.00;;
15358;SDS011;7779;49.596;11.070;2023-07-20T01:29:08;2.70;;;2.20;;
15358;SDS011;7779;49.596;11.070;2023-07-20T01:32:03;3.33;;;2.07;;
15358;SDS011;7779;49.596;11.070;2023-07-20T01:34:34;3.53;;;2.23;;
15358;SDS011;7779;49.596;11.070;2023-07-20T01:37:02;2.57;;;2.33;;
15358;SDS011;7779;49.596;11.070;2023-07-20T01:39:30;3.03;;;2.10;;
15358;SDS011;7779;49.596;11.070;2023-07-20T01:41:58;2.73;;;2.20;;
15358;SDS011;7779;49.596;11.070;2023-07-20T01:44:24;2.40;;;2.20;;
15358;SDS011;7779;49.596;11.070;2023-07-20T01:46:49;4.63;;;1.90;;
15358;SDS011;7779;49.596;11.070;2023-07-20T01:49:15;3.00;;;2.20;;
15358;SDS011;7779;49.596;11.070;2023-07-20T01:51:41;2.30;;;2.10;;
15358;SDS011;7779;49.596;11.070;2023-07-20T01:54:06;2.33;;;2.13;;
15358;SDS011;7779;49.596;11.070;2023-07-20T01:56:32;3.00;;;2.30;;
15358;SDS011;7779;49.596;11.070;2023-07-20T01:58:58;3.77;;;2.40;;
15358;SDS011;7779;49.596;11.070;2023-07-20T02:01:24;3.10;;;2.40;;
15358;SDS011;7779;49.596;11.070;2023-07-20T02:03:50;2.83;;;2.00;;
15358;SDS011;7779;49.596;11.070;2023-07-20T02:06:15;2.63;;;2.20;;
15358;SDS011;7779;49.596;11.070;2023-07-20T02:08:42;3.20;;;2.33;;
15358;SDS011;7779;49.596;11.070;2023-07-20T02:11:08;3.83;;;2.37;;
15358;SDS011;7779;49.596;11.070;2023-07-20T02:13:35;2.40;;;2.20;;
15358;SDS011;7779;49.596;11.070;2023-07-20T02:16:01;2.40;;;2.20;;
15358;SDS011;7779;49.596;11.070;2023-07-20T02:18:26;3.53;;;2.40;;
15358;SDS011;7779;49.596;11.070;2023-07-20T02:20:53;3.13;;;2.40;;
15358;SDS011;7779;49.596;11.070;2023-07-20T02:23:19;3.80;;;2.40;;
15358;SDS011;7779;49.596;11.070;2023-07-20T02:25:45;3.73;;;2.50;;
15358;SDS011;7779;49.596;11.070;2023-07-20T02:28:13;3.00;;;2.73;;
15358;SDS011;7779;49.596;11.070;2023-07-20T02:30:40;2.37;;;2.17;;
15358;SDS011;7779;49.596;11.070;2023-07-20T02:33:06;2.23;;;2.03;;
15358;SDS011;7779;49.596;11.070;2023-07-20T02:35:32;4.17;;;2.50;;
15358;SDS011;7779;49.596;11.070;2023-07-20T02:37:58;2.57;;;2.37;;
15358;SDS011;7779;49.596;11.070;2023-07-20T02:40:24;5.07;;;2.60;;
15358;SDS011;7779;49.596;11.070;2023-07-20T02:42:50;2.53;;;2.33;;
15358;SDS011;7779;49.596;11.070;2023-07-20T02:45:16;4.53;;;2.60;;
15358;SDS011;7779;49.596;11.070;2023-07-20T02:47:42;3.27;;;2.50;;
15358;SDS011;7779;49.596;11.070;2023-07-20T02:50:08;2.73;;;2.40;;
15358;SDS011;7779;49.596;11.070;2023-07-20T02:52:34;4.30;;;2.57;;
15358;SDS011;7779;49.596;11.070;2023-07-20T02:55:00;3.90;;;2.43;;
15358;SDS011;7779;49.596;11.070;2023-07-20T02:57:26;2.30;;;2.10;;
15358;SDS011;7779;49.596;11.070;2023-07-20T02:59:52;3.87;;;2.60;;
15358;SDS011;7779;49.596;11.070;2023-07-20T03:02:18;2.83;;;2.30;;
15358;SDS011;7779;49.596;11.070;2023-07-20T03:04:44;2.73;;;2.40;;
15358;SDS011;7779;49.596;11.070;2023-07-20T03:07:10;4.20;;;2.70;;
15358;SDS011;7779;49.596;11.070;2023-07-20T03:09:35;3.03;;;2.40;;
15358;SDS011;7779;49.596;11.070;2023-07-20T03:12:01;2.77;;;2.20;;
15358;SDS011;7779;49.596;11.070;2023-07-20T03:14:29;2.30;;;1.93;;
15358;SDS011;7779;49.596;11.070;2023-07-20T03:16:55;2.23;;;2.03;;
15358;SDS011;7779;49.596;11.070;2023-07-20T03:19:21;2.43;;;2.23;;
15358;SDS011;7779;49.596;11.070;2023-07-20T03:21:47;2.10;;;1.90;;
15358;SDS011;7779;49.596;11.070;2023-07-20T03:24:13;2.93;;;2.10;;
15358;SDS011;7779;49.596;11.070;2023-07-20T03:26:39;2.10;;;1.90;;
15358;SDS011;7779;49.596;11.070;2023-07-20T03:29:06;2.80;;;2.37;;
15358;SDS011;7779;49.596;11.070;2023-07-20T03:31:32;2.47;;;2.27;;
15358;SDS011;7779;49.596;11.070;2023-07-20T03:33:58;3.33;;;2.63;;
15358;SDS011;7779;49.596;11.070;2023-07-20T03:36:24;2.53;;;2.30;;
15358;SDS011;7779;49.596;11.070;2023-07-20T03:38:50;3.57;;;2.33;;
15358;SDS011;7779;49.596;11.070;2023-07-20T03:41:16;3.33;;;2.40;;
15358;SDS011;7779;49.596;11.070;2023-07-20T03:43:42;3.27;;;2.40;;
15358;SDS011;7779;49.596;11.070;2023-07-20T03:46:07;3.00;;;2.40;;
15358;SDS011;7779;49.596;11.070;2023-07-20T03:48:33;3.73;;;2.50;;
15358;SDS011;7779;49.596;11.070;2023-07-20T03:50:59;2.40;;;2.20;;
15358;SDS011;7779;49.596;11.070;2023-07-20T03:53:26;2.77;;;2.27;;
15358;SDS011;7779;49.596;11.070;2023-07-20T03:55:52;3.10;;;2.50;;
15358;SDS011;7779;49.596;11.070;2023-07-20T03:58:19;4.47;;;2.30;;
15358;SDS011;7779;49.596;11.070;2023-07-20T04:00:47;4.20;;;2.27;;
15358;SDS011;7779;49.596;11.070;2023-07-20T04:03:15;4.67;;;2.50;;
15358;SDS011;7779;49.596;11.070;2023-07-20T04:05:43;3.17;;;2.70;;
15358;SDS011;7779;49.596;11.070;2023-07-20T04:08:09;2.90;;;2.40;;
15358;SDS011;7779;49.596;11.070;2023-07-20T04:10:38;3.67;;;2.47;;
15358;SDS011;7779;49.596;11.070;2023-07-20T04:13:04;2.43;;;2.23;;
15358;SDS011;7779;49.596;11.070;2023-07-20T04:15:31;3.10;;;2.30;;
15358;SDS011;7779;49.596;11.070;2023-07-20T04:17:57;4.40;;;2.63;;
15358;SDS011;7779;49.596;11.070;2023-07-20T04:20:23;2.60;;;2.33;;
15358;SDS011;7779;49.596;11.070;2023-07-20T04:22:49;2.43;;;2.23;;
15358;SDS011;7779;49.596;11.070;2023-07-20T04:25:16;2.50;;;2.30;;
15358;SDS011;7779;49.596;11.070;2023-07-20T04:27:45;3.30;;;2.73;;
15358;SDS011;7779;49.596;11.070;2023-07-20T04:30:11;3.37;;;2.70;;
15358;SDS011;7779;49.596;11.070;2023-07-20T04:32:38;3.97;;;2.53;;
15358;SDS011;7779;49.596;11.070;2023-07-20T04:35:16;3.87;;;2.73;;
15358;SDS011;7779;49.596;11.070;2023-07-20T04:38:13;3.73;;;2.43;;
15358;SDS011;7779;49.596;11.070;2023-07-20T04:40:44;2.53;;;2.30;;
15358;SDS011;7779;49.596;11.070;2023-07-20T04:43:11;3.07;;;2.77;;
15358;SDS011;7779;49.596;11.070;2023-07-20T04:45:37;2.67;;;2.47;;
15358;SDS011;7779;49.596;11.070;2023-07-20T04:48:06;3.87;;;2.63;;
15358;SDS011;7779;49.596;11.070;2023-07-20T04:50:42;4.13;;;2.53;;
15358;SDS011;7779;49.596;11.070;2023-07-20T04:53:11;3.03;;;2.53;;
15358;SDS011;7779;49.596;11.070;2023-07-20T04:55:39;2.73;;;2.30;;
15358;SDS011;7779;49.596;11.070;2023-07-20T04:58:06;3.20;;;2.77;;
15358;SDS011;7779;49.596;11.070;2023-07-20T05:00:34;2.63;;;2.40;;
15358;SDS011;7779;49.596;11.070;2023-07-20T05:03:00;5.20;;;2.53;;
15358;SDS011;7779;49.596;11.070;2023-07-20T05:05:26;5.77;;;2.40;;
15358;SDS011;7779;49.596;11.070;2023-07-20T05:07:52;3.60;;;2.50;;
15358;SDS011;7779;49.596;11.070;2023-07-20T05:10:17;3.23;;;2.53;;
15358;SDS011;7779;49.596;11.070;2023-07-20T05:12:43;3.97;;;2.50;;
15358;SDS011;7779;49.596;11.070;2023-07-20T05:15:09;3.43;;;2.33;;
15358;SDS011;7779;49.596;11.070;2023-07-20T05:17:37;3.90;;;2.53;;
15358;SDS011;7779;49.596;11.070;2023-07-20T05:20:04;5.33;;;2.53;;
15358;SDS011;7779;49.596;11.070;2023-07-20T05:22:31;3.90;;;2.50;;
15358;SDS011;7779;49.596;11.070;2023-07-20T05:24:56;4.80;;;2.63;;
15358;SDS011;7779;49.596;11.070;2023-07-20T05:27:22;4.23;;;2.30;;
15358;SDS011;7779;49.596;11.070;2023-07-20T05:29:48;5.40;;;2.13;;
15358;SDS011;7779;49.596;11.070;2023-07-20T05:32:14;4.10;;;2.30;;
15358;SDS011;7779;49.596;11.070;2023-07-20T05:34:39;2.37;;;2.07;;
15358;SDS011;7779;49.596;11.070;2023-07-20T05:37:05;7.43;;;2.60;;
15358;SDS011;7779;49.596;11.070;2023-07-20T05:39:34;2.70;;;1.87;;
15358;SDS011;7779;49.596;11.070;2023-07-20T05:41:59;3.03;;;2.57;;
15358;SDS011;7779;49.596;11.070;2023-07-20T05:44:25;4.67;;;2.30;;
15358;SDS011;7779;49.596;11.070;2023-07-20T05:46:51;3.40;;;2.50;;
15358;SDS011;7779;49.596;11.070;2023-07-20T05:49:17;3.93;;;2.20;;
15358;SDS011;7779;49.596;11.070;2023-07-20T05:51:42;3.97;;;2.13;;
15358;SDS011;7779;49.596;11.070;2023-07-20T05:54:08;2.77;;;1.90;;
15358;SDS011;7779;49.596;11.070;2023-07-20T05:56:34;2.10;;;1.90;;
15358;SDS011;7779;49.596;11.070;2023-07-20T05:58:59;2.87;;;2.30;;
15358;SDS011;7779;49.596;11.070;2023-07-20T06:01:25;3.37;;;2.30;;
15358;SDS011;7779;49.596;11.070;2023-07-20T06:03:53;2.40;;;2.00;;
15358;SDS011;7779;49.596;11.070;2023-07-20T06:06:19;2.53;;;2.10;;
15358;SDS011;7779;49.596;11.070;2023-07-20T06:08:44;2.50;;;1.90;;
15358;SDS011;7779;49.596;11.070;2023-07-20T06:11:11;3.20;;;2.20;;
15358;SDS011;7779;49.596;11.070;2023-07-20T06:13:36;2.90;;;2.53;;
15358;SDS011;7779;49.596;11.070;2023-07-20T06:16:02;2.17;;;2.00;;
15358;SDS011;7779;49.596;11.070;2023-07-20T06:18:29;3.53;;;2.50;;
15358;SDS011;7779;49.596;11.070;2023-07-20T06:20:55;2.50;;;2.13;;
15358;SDS011;7779;49.596;11.070;2023-07-20T06:23:21;2.67;;;2.20;;
15358;SDS011;7779;49.596;11.070;2023-07-20T06:25:47;3.63;;;2.20;;
15358;SDS011;7779;49.596;11.070;2023-07-20T06:28:13;3.37;;;1.97;;
15358;SDS011;7779;49.596;11.070;2023-07-20T06:30:39;3.27;;;2.10;;
15358;SDS011;7779;49.596;11.070;2023-07-20T06:33:05;2.90;;;1.77;;
15358;SDS011;7779;49.596;11.070;2023-07-20T06:35:32;3.33;;;1.77;;
15358;SDS011;7779;49.596;11.070;2023-07-20T06:37:59;6.27;;;2.20;;
15358;SDS011;7779;49.596;11.070;2023-07-20T06:40:25;2.20;;;1.77;;
15358;SDS011;7779;49.596;11.070;2023-07-20T06:42:51;3.17;;;2.00;;
15358;SDS011;7779;49.596;11.070;2023-07-20T06:45:17;2.23;;;1.90;;
15358;SDS011;7779;49.596;11.070;2023-07-20T06:47:43;2.93;;;2.17;;
15358;SDS011;7779;49.596;11.070;2023-07-20T06:50:09;2.83;;;2.13;;
15358;SDS011;7779;49.596;11.070;2023-07-20T06:52:36;3.23;;;2.20;;
15358;SDS011;7779;49.596;11.070;2023-07-20T06:55:02;3.87;;;2.00;;
15358;SDS011;7779;49.596;11.070;2023-07-20T06:57:28;3.20;;;1.90;;
15358;SDS011;7779;49.596;11.070;2023-07-20T06:59:54;2.13;;;1.90;;
15358;SDS011;7779;49.596;11.070;2023-07-20T07:02:20;3.63;;;1.80;;
15358;SDS011;7779;49.596;11.070;2023-07-20T07:04:46;3.77;;;1.80;;
15358;SDS011;7779;49.596;11.070;2023-07-20T07:07:14;3.23;;;2.00;;
15358;SDS011;7779;49.596;11.070;2023-07-20T07:09:41;3.40;;;2.20;;
15358;SDS011;7779;49.596;11.070;2023-07-20T07:12:07;2.30;;;1.90;;
15358;SDS011;7779;49.596;11.070;2023-07-20T07:14:33;2.60;;;1.67;;
15358;SDS011;7779;49.596;11.070;2023-07-20T07:17:00;3.60;;;2.07;;
15358;SDS011;7779;49.596;11.070;2023-07-20T07:19:26;2.43;;;1.63;;
15358;SDS011;7779;49.596;11.070;2023-07-20T07:21:51;3.33;;;1.63;;
15358;SDS011;7779;49.596;11.070;2023-07-20T07:24:17;2.60;;;1.60;;
15358;SDS011;7779;49.596;11.070;2023-07-20T07:26:43;1.83;;;1.60;;
15358;SDS011;7779;49.596;11.070;2023-07-20T07:29:09;2.13;;;1.60;;
15358;SDS011;7779;49.596;11.070;2023-07-20T07:31:35;3.43;;;1.67;;
15358;SDS011;7779;49.596;11.070;2023-07-20T07:34:01;3.17;;;1.50;;
15358;SDS011;7779;49.596;11.070;2023-07-20T07:36:28;2.03;;;1.40;;
15358;SDS011;7779;49.596;11.070;2023-07-20T07:38:54;1.93;;;1.40;;
15358;SDS011;7779;49.596;11.070;2023-07-20T07:41:19;2.00;;;1.50;;
15358;SDS011;7779;49.596;11.070;2023-07-20T07:43:46;1.70;;;1.60;;
15358;SDS011;7779;49.596;11.070;2023-07-20T07:46:11;2.50;;;1.30;;
15358;SDS011;7779;49.596;11.070;2023-07-20T07:48:38;1.30;;;1.20;;
15358;SDS011;7779;49.596;11.070;2023-07-20T07:51:04;5.07;;;1.23;;
15358;SDS011;7779;49.596;11.070;2023-07-20T07:53:30;1.50;;;1.40;;
15358;SDS011;7779;49.596;11.070;2023-07-20T07:55:55;2.83;;;1.30;;
15358;SDS011;7779;49.596;11.070;2023-07-20T07:58:21;3.73;;;1.30;;
15358;SDS011;7779;49.596;11.070;2023-07-20T08:00:47;1.43;;;1.17;;
15358;SDS011;7779;49.596;11.070;2023-07-20T08:03:13;2.33;;;1.30;;
15358;SDS011;7779;49.596;11.070;2023-07-20T08:05:38;2.30;;;1.47;;
15358;SDS011;7779;49.596;11.070;2023-07-20T08:08:04;1.67;;;1.50;;
15358;SDS011;7779;49.596;11.070;2023-07-20T08:10:30;2.33;;;1.40;;
15358;SDS011;7779;49.596;11.070;2023-07-20T08:12:56;2.50;;;1.43;;
15358;SDS011;7779;49.596;11.070;2023-07-20T08:15:22;1.53;;;1.20;;
15358;SDS011;7779;49.596;11.070;2023-07-20T08:17:48;2.97;;;1.70;;
15358;SDS011;7779;49.596;11.070;2023-07-20T08:20:16;1.70;;;1.30;;
15358;SDS011;7779;49.596;11.070;2023-07-20T08:22:43;2.00;;;1.33;;
15358;SDS011;7779;49.596;11.070;2023-07-20T08:25:09;1.60;;;1.40;;
15358;SDS011;7779;49.596;11.070;2023-07-20T08:27:35;2.20;;;1.37;;
15358;SDS011;7779;49.596;11.070;2023-07-20T08:30:02;3.53;;;1.40;;
15358;SDS011;7779;49.596;11.070;2023-07-20T08:32:29;1.90;;;1.47;;
15358;SDS011;7779;49.596;11.070;2023-07-20T08:34:55;2.30;;;1.40;;
15358;SDS011;7779;49.596;11.070;2023-07-20T08:37:21;2.47;;;1.10;;
15358;SDS011;7779;49.596;11.070;2023-07-20T08:39:47;1.87;;;1.10;;
15358;SDS011;7779;49.596;11.070;2023-07-20T08:42:13;3.33;;;1.40;;
15358;SDS011;7779;49.596;11.070;2023-07-20T08:44:41;1.20;;;1.10;;
15358;SDS011;7779;49.596;11.070;2023-07-20T08:47:09;3.10;;;1.50;;
15358;SDS011;7779;49.596;11.070;2023-07-20T08:49:37;2.57;;;1.30;;
15358;SDS011;7779;49.596;11.070;2023-07-20T08:52:04;2.00;;;1.30;;
15358;SDS011;7779;49.596;11.070;2023-07-20T08:54:31;2.23;;;1.50;;
15358;SDS011;7779;49.596;11.070;2023-07-20T08:57:03;2.00;;;1.40;;
15358;SDS011;7779;49.596;11.070;2023-07-20T08:59:30;3.47;;;1.47;;
15358;SDS011;7779;49.596;11.070;2023-07-20T09:02:00;1.60;;;1.30;;
15358;SDS011;7779;49.596;11.070;2023-07-20T09:04:27;2.13;;;1.53;;
15358;SDS011;7779;49.596;11.070;2023-07-20T09:06:53;1.57;;;1.30;;
15358;SDS011;7779;49.596;11.070;2023-07-20T09:09:18;2.17;;;1.40;;
15358;SDS011;7779;49.596;11.070;2023-07-20T09:11:46;5.23;;;1.40;;
15358;SDS011;7779;49.596;11.070;2023-07-20T09:14:14;2.60;;;1.50;;
15358;SDS011;7779;49.596;11.070;2023-07-20T09:16:47;2.23;;;1.30;;
15358;SDS011;7779;49.596;11.070;2023-07-20T09:19:20;2.07;;;1.17;;
15358;SDS011;7779;49.596;11.070;2023-07-20T09:21:50;2.90;;;1.30;;
15358;SDS011;7779;49.596;11.070;2023-07-20T09:24:17;2.50;;;1.17;;
15358;SDS011;7779;49.596;11.070;2023-07-20T09:26:45;1.90;;;1.27;;
15358;SDS011;7779;49.596;11.070;2023-07-20T09:29:13;1.40;;;0.97;;
15358;SDS011;7779;49.596;11.070;2023-07-20T09:31:43;3.33;;;1.40;;
15358;SDS011;7779;49.596;11.070;2023-07-20T09:34:30;1.87;;;1.17;;
15358;SDS011;7779;49.596;11.070;2023-07-20T09:36:59;2.37;;;1.20;;
15358;SDS011;7779;49.596;11.070;2023-07-20T09:39:25;1.20;;;1.10;;
15358;SDS011;7779;49.596;11.070;2023-07-20T09:41:52;1.73;;;1.30;;
15358;SDS011;7779;49.596;11.070;2023-07-20T09:44:18;1.70;;;1.07;;
15358;SDS011;7779;49.596;11.070;2023-07-20T09:46:47;1.40;;;1.10;;
15358;SDS011;7779;49.596;11.070;2023-07-20T09:49:16;2.20;;;1.00;;
15358;SDS011;7779;49.596;11.070;2023-07-20T09:51:44;2.33;;;1.10;;
15358;SDS011;7779;49.596;11.070;2023-07-20T09:54:11;1.03;;;0.90;;
15358;SDS011;7779;49.596;11.070;2023-07-20T09:56:38;3.03;;;1.20;;
15358;SDS011;7779;49.596;11.070;2023-07-20T09:59:05;1.80;;;1.07;;
15358;SDS011;7779;49.596;11.070;2023-07-20T10:01:31;1.77;;;1.10;;
15358;SDS011;7779;49.596;11.070;2023-07-20T10:03:59;1.33;;;1.00;;
15358;SDS011;7779;49.596;11.070;2023-07-20T10:06:29;1.50;;;1.10;;
15358;SDS011;7779;49.596;11.070;2023-07-20T10:09:02;1.77;;;0.80;;
15358;SDS011;7779;49.596;11.070;2023-07-20T10:11:31;2.07;;;1.00;;
15358;SDS011;7779;49.596;11.070;2023-07-20T10:14:04;1.00;;;0.80;;
15358;SDS011;7779;49.596;11.070;2023-07-20T10:16:34;2.23;;;1.00;;
15358;SDS011;7779;49.596;11.070;2023-07-20T10:19:07;0.83;;;0.80;;
15358;SDS011;7779;49.596;11.070;2023-07-20T10:21:50;1.47;;;0.90;;
15358;SDS011;7779;49.596;11.070;2023-07-20T10:24:25;1.00;;;0.90;;
15358;SDS011;7779;49.596;11.070;2023-07-20T10:26:53;0.97;;;0.70;;
15358;SDS011;7779;49.596;11.070;2023-07-20T10:29:21;3.23;;;1.00;;
15358;SDS011;7779;49.596;11.070;2023-07-20T10:31:48;2.07;;;0.90;;
15358;SDS011;7779;49.596;11.070;2023-07-20T10:34:15;1.30;;;1.07;;
15358;SDS011;7779;49.596;11.070;2023-07-20T10:36:45;2.10;;;0.80;;
15358;SDS011;7779;49.596;11.070;2023-07-20T10:39:24;1.07;;;0.90;;
15358;SDS011;7779;49.596;11.070;2023-07-20T10:41:59;1.27;;;0.90;;
15358;SDS011;7779;49.596;11.070;2023-07-20T10:44:28;0.93;;;0.70;;
15358;SDS011;7779;49.596;11.070;2023-07-20T10:47:01;0.93;;;0.73;;
15358;SDS011;7779;49.596;11.070;2023-07-20T10:49:33;1.50;;;0.80;;
15358;SDS011;7779;49.596;11.070;2023-07-20T10:52:03;1.47;;;1.07;;
15358;SDS011;7779;49.596;11.070;2023-07-20T10:56:57;1.00;;;0.60;;
15358;SDS011;7779;49.596;11.070;2023-07-20T10:59:47;0.80;;;0.80;;
15358;SDS011;7779;49.596;11.070;2023-07-20T11:02:12;0.93;;;0.73;;
15358;SDS011;7779;49.596;11.070;2023-07-20T11:04:46;1.67;;;0.90;;
15358;SDS011;7779;49.596;11.070;2023-07-20T11:07:16;1.20;;;0.90;;
15358;SDS011;7779;49.596;11.070;2023-07-20T11:10:14;0.77;;;0.67;;
15358;SDS011;7779;49.596;11.070;2023-07-20T11:12:52;0.97;;;0.87;;
15358;SDS011;7779;49.596;11.070;2023-07-20T11:15:44;0.70;;;0.63;;
15358;SDS011;7779;49.596;11.070;2023-07-20T11:18:25;1.63;;;0.70;;
15358;SDS011;7779;49.596;11.070;2023-07-20T11:20:51;1.17;;;0.97;;
15358;SDS011;7779;49.596;11.070;2023-07-20T11:23:21;1.33;;;0.77;;
15358;SDS011;7779;49.596;11.070;2023-07-20T11:25:47;1.03;;;0.70;;
15358;SDS011;7779;49.596;11.070;2023-07-20T11:28:14;1.13;;;0.80;;
15358;SDS011;7779;49.596;11.070;2023-07-20T11:30:40;1.13;;;0.80;;
15358;SDS011;7779;49.596;11.070;2023-07-20T11:33:09;0.70;;;0.70;;
15358;SDS011;7779;49.596;11.070;2023-07-20T11:35:44;1.00;;;0.90;;
15358;SDS011;7779;49.596;11.070;2023-07-20T11:38:14;1.47;;;0.80;;
15358;SDS011;7779;49.596;11.070;2023-07-20T11:40:46;0.83;;;0.70;;
15358;SDS011;7779;49.596;11.070;2023-07-20T11:43:12;1.73;;;1.00;;
15358;SDS011;7779;49.596;11.070;2023-07-20T11:45:39;1.00;;;0.90;;
15358;SDS011;7779;49.596;11.070;2023-07-20T11:48:05;0.80;;;0.80;;
15358;SDS011;7779;49.596;11.070;2023-07-20T11:50:31;1.00;;;0.90;;
15358;SDS011;7779;49.596;11.070;2023-07-20T11:52:57;0.70;;;0.70;;
15358;SDS011;7779;49.596;11.070;2023-07-20T11:55:23;1.03;;;0.70;;
15358;SDS011;7779;49.596;11.070;2023-07-20T11:58:05;1.30;;;0.90;;
15358;SDS011;7779;49.596;11.070;2023-07-20T12:00:32;1.00;;;0.80;;
15358;SDS011;7779;49.596;11.070;2023-07-20T12:02:59;1.10;;;0.80;;
15358;SDS011;7779;49.596;11.070;2023-07-20T12:05:26;1.13;;;0.83;;
15358;SDS011;7779;49.596;11.070;2023-07-20T12:07:52;1.60;;;0.90;;
15358;SDS011;7779;49.596;11.070;2023-07-20T12:10:27;0.70;;;0.70;;
15358;SDS011;7779;49.596;11.070;2023-07-20T12:12:54;0.80;;;0.80;;
15358;SDS011;7779;49.596;11.070;2023-07-20T12:15:28;1.17;;;0.70;;
15358;SDS011;7779;49.596;11.070;2023-07-20T12:18:01;1.23;;;0.80;;
15358;SDS011;7779;49.596;11.070;2023-07-20T12:20:31;1.00;;;0.60;;
15358;SDS011;7779;49.596;11.070;2023-07-20T12:23:02;0.93;;;0.70;;
15358;SDS011;7779;49.596;11.070;2023-07-20T12:25:33;0.70;;;0.50;;
15358;SDS011;7779;49.596;11.070;2023-07-20T12:28:17;0.90;;;0.80;;
15358;SDS011;7779;49.596;11.070;2023-07-20T12:30:45;0.93;;;0.70;;
15358;SDS011;7779;49.596;11.070;2023-07-20T12:33:12;1.70;;;0.90;;
15358;SDS011;7779;49.596;11.070;2023-07-20T12:35:40;1.37;;;0.80;;
15358;SDS011;7779;49.596;11.070;2023-07-20T12:38:08;1.00;;;0.80;;
15358;SDS011;7779;49.596;11.070;2023-07-20T12:40:34;1.77;;;0.80;;
15358;SDS011;7779;49.596;11.070;2023-07-20T12:43:01;1.30;;;0.83;;
15358;SDS011;7779;49.596;11.070;2023-07-20T12:45:26;1.03;;;0.70;;
15358;SDS011;7779;49.596;11.070;2023-07-20T12:47:52;1.20;;;0.83;;
15358;SDS011;7779;49.596;11.070;2023-07-20T12:50:18;0.70;;;0.70;;
15358;SDS011;7779;49.596;11.070;2023-07-20T12:52:44;1.13;;;0.90;;
15358;SDS011;7779;49.596;11.070;2023-07-20T12:55:10;1.20;;;0.90;;
15358;SDS011;7779;49.596;11.070;2023-07-20T12:57:36;1.07;;;0.80;;
15358;SDS011;7779;49.596;11.070;2023-07-20T13:00:03;1.83;;;0.90;;
15358;SDS011;7779;49.596;11.070;2023-07-20T13:02:33;0.80;;;0.80;;
15358;SDS011;7779;49.596;11.070;2023-07-20T13:04:59;1.30;;;0.90;;
15358;SDS011;7779;49.596;11.070;2023-07-20T13:07:34;0.80;;;0.77;;
15358;SDS011;7779;49.596;11.070;2023-07-20T13:10:02;0.80;;;0.80;;
15358;SDS011;7779;49.596;11.070;2023-07-20T13:12:30;0.90;;;0.73;;
15358;SDS011;7779;49.596;11.070;2023-07-20T13:14:58;2.43;;;0.90;;
15358;SDS011;7779;49.596;11.070;2023-07-20T13:17:27;0.70;;;0.70;;
15358;SDS011;7779;49.596;11.070;2023-07-20T13:19:54;1.03;;;0.93;;
15358;SDS011;7779;49.596;11.070;2023-07-20T13:22:20;1.10;;;0.80;;
15358;SDS011;7779;49.596;11.070;2023-07-20T13:24:46;0.90;;;0.87;;
15358;SDS011;7779;49.596;11.070;2023-07-20T13:27:14;1.50;;;1.00;;
15358;SDS011;7779;49.596;11.070;2023-07-20T13:29:41;0.73;;;0.73;;
15358;SDS011;7779;49.596;11.070;2023-07-20T13:32:07;1.30;;;0.90;;
15358;SDS011;7779;49.596;11.070;2023-07-20T13:34:34;0.80;;;0.77;;
15358;SDS011;7779;49.596;11.070;2023-07-20T13:37:00;0.93;;;0.70;;
15358;SDS011;7779;49.596;11.070;2023-07-20T13:39:26;1.10;;;0.77;;
15358;SDS011;7779;49.596;11.070;2023-07-20T13:41:53;0.80;;;0.80;;
15358;SDS011;7779;49.596;11.070;2023-07-20T13:44:19;1.67;;;1.13;;
15358;SDS011;7779;49.596;11.070;2023-07-20T13:46:49;1.03;;;0.93;;
15358;SDS011;7779;49.596;11.070;2023-07-20T13:49:15;1.00;;;0.83;;
15358;SDS011;7779;49.596;11.070;2023-07-20T13:51:41;0.80;;;0.80;;
15358;SDS011;7779;49.596;11.070;2023-07-20T13:54:07;1.03;;;0.80;;
15358;SDS011;7779;49.596;11.070;2023-07-20T13:56:34;2.63;;;0.80;;
15358;SDS011;7779;49.596;11.070;2023-07-20T13:59:00;1.20;;;0.90;;
15358;SDS011;7779;49.596;11.070;2023-07-20T14:01:26;0.90;;;0.80;;
15358;SDS011;7779;49.596;11.070;2023-07-20T14:03:53;1.00;;;0.80;;
15358;SDS011;7779;49.596;11.070;2023-07-20T14:06:19;1.00;;;0.90;;
15358;SDS011;7779;49.596;11.070;2023-07-20T14:08:45;1.00;;;0.90;;
15358;SDS011;7779;49.596;11.070;2023-07-20T14:11:14;2.03;;;1.00;;
15358;SDS011;7779;49.596;11.070;2023-07-20T14:13:42;1.70;;;0.87;;
15358;SDS011;7779;49.596;11.070;2023-07-20T14:16:07;1.47;;;0.80;;
15358;SDS011;7779;49.596;11.070;2023-07-20T14:18:34;3.20;;;1.07;;
15358;SDS011;7779;49.596;11.070;2023-07-20T14:21:00;1.67;;;0.90;;
15358;SDS011;7779;49.596;11.070;2023-07-20T14:23:28;1.13;;;0.90;;
15358;SDS011;7779;49.596;11.070;2023-07-20T14:25:54;0.80;;;0.80;;
15358;SDS011;7779;49.596;11.070;2023-07-20T14:28:20;1.13;;;0.87;;
15358;SDS011;7779;49.596;11.070;2023-07-20T14:30:46;2.10;;;0.97;;
15358;SDS011;7779;49.596;11.070;2023-07-20T14:33:12;1.67;;;1.00;;
15358;SDS011;7779;49.596;11.070;2023-07-20T14:35:37;2.27;;;1.23;;
15358;SDS011;7779;49.596;11.070;2023-07-20T14:38:03;0.93;;;0.90;;
15358;SDS011;7779;49.596;11.070;2023-07-20T14:40:29;0.83;;;0.77;;
15358;SDS011;7779;49.596;11.070;2023-07-20T14:42:55;1.30;;;0.90;;
15358;SDS011;7779;49.596;11.070;2023-07-20T14:45:21;0.80;;;0.70;;
15358;SDS011;7779;49.596;11.070;2023-07-20T14:47:47;0.70;;;0.70;;
15358;SDS011;7779;49.596;11.070;2023-07-20T14:50:18;2.50;;;1.10;;
15358;SDS011;7779;49.596;11.070;2023-07-20T14:52:45;1.03;;;0.80;;
15358;SDS011;7779;49.596;11.070;2023-07-20T14:55:11;2.47;;;0.93;;
15358;SDS011;7779;49.596;11.070;2023-07-20T14:57:37;1.30;;;0.80;;
15358;SDS011;7779;49.596;11.070;2023-07-20T15:00:04;1.20;;;0.83;;
15358;SDS011;7779;49.596;11.070;2023-07-20T15:02:38;0.87;;;0.87;;